Glenwood City, WI (54013)

08:46 CST le 24 novembre 2014 (GMT -0600)
KWIEMERA2 | Change Station
CLOSE
Current Station
Stations météorologiques personnelles
Location: Emerald, WI
Altitude: 1197 ft
Stations météo à proximité

Alt. 1197 ft 45.10 °N, 92.26 °W | Updated 3 seconds ago

Neige
Neige
25.5 ° F
Paraît 19 ° F
N
6.0
Vent Variable Vent de NNO
Gusts 7.0 mph

Aujourd'hui
Haut(e) -- | Bas -- ° F
--% Risque de précip.
Hier
Haut(e) -- | Bas -- ° F
Precip. -- pouce
7:18 AM 4:32 PM
Lune montante, 5% visible
Pression 29.33 pouce
Visibilité 10.0 Miles terrestres
Nuages Couvert 1200 ft
Refroidissement éolien 19 ° F
Point de rosée 23 ° F
Humidité 89%
Précipitations 0.05 pouce
Profondeur de la couche neigeuse Non disponible.
UV 0 sur 12
Pollen .10 sur 12
Qualité de l'air Non disponible.
Flu Activity Non disponible.
METAR KRNH 241435Z AUTO 30015G21KT 10SM OVC012 M03/M04 A2933 RMK AO2 T10311039

More Conditions Fewer Conditions

Pression 29.33 pouce
Visibilité 10.0 Miles terrestres
Nuages Couvert 1200 ft
Refroidissement éolien 19 ° F
Point de rosée 23 ° F
Humidité 89%
Précipitations 0.05 pouce
Profondeur de la couche neigeuse Non disponible.
UV 0 sur 12
Pollen .10 sur 12
Qualité de l'air Non disponible.
Flu Activity Non disponible.
METAR KRNH 241435Z AUTO 30015G21KT 10SM OVC012 M03/M04 A2933 RMK AO2 T10311039

More Conditions Fewer Conditions

10-Day Weather Forecast

Almanac

Astronomie

Nov. 24, 2014 Lever Coucher
Temps réel
Crépuscule civil
Crépuscule nautique
Crépuscule astronomique
Lune
Durée de lumière visible
Longueur du jour
Tomorrow will be .
, % of the Moon is Illuminated

Extrêmes aujourd'hui

State Highs State Lows

Community

WunderPhotos

Upload Photos

1,773,353 Photos téléchargées !

WunderBlogs® & News

Nearby

Qualité de l'air

  Qualité de l'air Indice de la qualité de l'air Polluant
Not available.

Épaisseur de neige

Station Depth Altitude

Activité sismique

Ville Distance Mag. Time & Date
Minimum magnitude displayed is 2.5.

Températures des eaux côtières

Lieu Température

Stations météo à proximité